sensor_id;sensor_type;location;lat;lon;timestamp;pressure;altitude;pressure_sealevel;temperature;humidity
13476;BME280;6810;63.824;20.288;2023-02-21T00:01:42;99901.66;;;-1.66;100.00
13476;BME280;6810;63.824;20.288;2023-02-21T00:04:27;99904.31;;;-1.67;100.00
13476;BME280;6810;63.824;20.288;2023-02-21T00:07:13;99905.22;;;-1.68;100.00
13476;BME280;6810;63.824;20.288;2023-02-21T00:09:58;99905.31;;;-1.73;100.00
13476;BME280;6810;63.824;20.288;2023-02-21T00:12:44;99913.13;;;-1.71;100.00
13476;BME280;6810;63.824;20.288;2023-02-21T00:15:30;99920.88;;;-1.68;100.00
13476;BME280;6810;63.824;20.288;2023-02-21T00:18:15;99904.59;;;-1.80;100.00
13476;BME280;6810;63.824;20.288;2023-02-21T00:21:01;99922.66;;;-1.70;100.00
13476;BME280;6810;63.824;20.288;2023-02-21T00:23:46;99922.75;;;-1.75;100.00
13476;BME280;6810;63.824;20.288;2023-02-21T00:26:32;99934.84;;;-1.71;100.00
13476;BME280;6810;63.824;20.288;2023-02-21T00:29:18;99940.97;;;-1.72;100.00
13476;BME280;6810;63.824;20.288;2023-02-21T00:32:03;99941.88;;;-1.73;100.00
13476;BME280;6810;63.824;20.288;2023-02-21T00:34:49;99941.88;;;-1.73;100.00
13476;BME280;6810;63.824;20.288;2023-02-21T00:37:35;99952.31;;;-1.73;100.00
13476;BME280;6810;63.824;20.288;2023-02-21T00:40:20;99957.56;;;-1.73;100.00
13476;BME280;6810;63.824;20.288;2023-02-21T00:43:06;99964.53;;;-1.75;100.00
13476;BME280;6810;63.824;20.288;2023-02-21T00:45:52;99972.38;;;-1.75;100.00
13476;BME280;6810;63.824;20.288;2023-02-21T00:48:37;99984.56;;;-1.76;100.00
13476;BME280;6810;63.824;20.288;2023-02-21T00:51:23;99995.00;;;-1.76;100.00
13476;BME280;6810;63.824;20.288;2023-02-21T00:54:08;99990.72;;;-1.78;100.00
13476;BME280;6810;63.824;20.288;2023-02-21T00:56:54;99993.31;;;-1.77;100.00
13476;BME280;6810;63.824;20.288;2023-02-21T00:59:40;99997.66;;;-1.77;100.00
13476;BME280;6810;63.824;20.288;2023-02-21T01:02:25;99997.75;;;-1.82;100.00
13476;BME280;6810;63.824;20.288;2023-02-21T01:05:11;100013.31;;;-1.77;100.00
13476;BME280;6810;63.824;20.288;2023-02-21T01:07:56;100013.41;;;-1.82;100.00
13476;BME280;6810;63.824;20.288;2023-02-21T01:10:42;100024.66;;;-1.78;100.00
13476;BME280;6810;63.824;20.288;2023-02-21T01:13:28;100035.13;;;-1.78;100.00
13476;BME280;6810;63.824;20.288;2023-02-21T01:16:13;100038.59;;;-1.77;100.00
13476;BME280;6810;63.824;20.288;2023-02-21T01:18:59;100033.56;;;-1.87;100.00
13476;BME280;6810;63.824;20.288;2023-02-21T01:21:44;100042.94;;;-1.78;100.00
13476;BME280;6810;63.824;20.288;2023-02-21T01:24:30;100049.06;;;-1.79;100.00
13476;BME280;6810;63.824;20.288;2023-02-21T01:27:15;100046.53;;;-1.82;100.00
13476;BME280;6810;63.824;20.288;2023-02-21T01:30:01;100061.25;;;-1.80;100.00
13476;BME280;6810;63.824;20.288;2023-02-21T01:32:47;100062.97;;;-1.79;100.00
13476;BME280;6810;63.824;20.288;2023-02-21T01:35:32;100067.38;;;-1.81;100.00
13476;BME280;6810;63.824;20.288;2023-02-21T01:38:18;100070.88;;;-1.82;100.00
13476;BME280;6810;63.824;20.288;2023-02-21T01:41:04;100085.69;;;-1.82;100.00
13476;BME280;6810;63.824;20.288;2023-02-21T01:44:02;100084.84;;;-1.84;100.00
13476;BME280;6810;63.824;20.288;2023-02-21T01:46:47;100095.28;;;-1.84;100.00
13476;BME280;6810;63.824;20.288;2023-02-21T01:49:36;100070.47;;;-2.08;100.00
13476;BME280;6810;63.824;20.288;2023-02-21T01:52:23;100112.75;;;-1.88;100.00
13476;BME280;6810;63.824;20.288;2023-02-21T01:55:10;100073.25;;;-2.17;100.00
13476;BME280;6810;63.824;20.288;2023-02-21T01:57:56;100126.72;;;-1.90;100.00
13476;BME280;6810;63.824;20.288;2023-02-21T02:00:42;100131.13;;;-1.92;100.00
13476;BME280;6810;63.824;20.288;2023-02-21T02:03:29;100137.22;;;-1.93;100.00
13476;BME280;6810;63.824;20.288;2023-02-21T02:06:15;100145.06;;;-1.93;100.00
13476;BME280;6810;63.824;20.288;2023-02-21T02:09:19;100159.88;;;-1.95;100.00
13476;BME280;6810;63.824;20.288;2023-02-21T02:12:22;100167.75;;;-1.97;100.00
13476;BME280;6810;63.824;20.288;2023-02-21T02:24:56;100185.31;;;-2.08;100.00
13476;BME280;6810;63.824;20.288;2023-02-21T02:31:15;100188.84;;;-2.10;100.00
13476;BME280;6810;63.824;20.288;2023-02-21T02:34:29;100201.09;;;-2.15;100.00
13476;BME280;6810;63.824;20.288;2023-02-21T02:37:35;100215.06;;;-2.16;100.00
13476;BME280;6810;63.824;20.288;2023-02-21T02:40:53;100229.84;;;-2.18;100.00
13476;BME280;6810;63.824;20.288;2023-02-21T02:43:50;100246.41;;;-2.19;100.00
13476;BME280;6810;63.824;20.288;2023-02-21T02:46:39;100249.06;;;-2.22;100.00
13476;BME280;6810;63.824;20.288;2023-02-21T02:49:29;100226.72;;;-2.41;100.00
13476;BME280;6810;63.824;20.288;2023-02-21T02:52:18;100264.75;;;-2.24;100.00
13476;BME280;6810;63.824;20.288;2023-02-21T02:55:39;100266.50;;;-2.26;100.00
13476;BME280;6810;63.824;20.288;2023-02-21T02:58:33;100276.97;;;-2.27;100.00
13476;BME280;6810;63.824;20.288;2023-02-21T03:10:48;100268.66;;;-2.56;100.00
13476;BME280;6810;63.824;20.288;2023-02-21T03:13:55;100313.63;;;-2.36;100.00
13476;BME280;6810;63.824;20.288;2023-02-21T03:16:50;100312.75;;;-2.37;100.00
13476;BME280;6810;63.824;20.288;2023-02-21T03:19:40;100325.00;;;-2.40;100.00
13476;BME280;6810;63.824;20.288;2023-02-21T03:22:30;100337.13;;;-2.39;100.00
13476;BME280;6810;63.824;20.288;2023-02-21T03:25:20;100341.47;;;-2.40;100.00
13476;BME280;6810;63.824;20.288;2023-02-21T03:28:08;100351.94;;;-2.41;100.00
13476;BME280;6810;63.824;20.288;2023-02-21T03:30:56;100355.41;;;-2.41;100.00
13476;BME280;6810;63.824;20.288;2023-02-21T03:33:45;100363.25;;;-2.42;100.00
13476;BME280;6810;63.824;20.288;2023-02-21T03:36:32;100379.84;;;-2.45;100.00
13476;BME280;6810;63.824;20.288;2023-02-21T03:39:20;100377.25;;;-2.48;100.00
13476;BME280;6810;63.824;20.288;2023-02-21T03:42:07;100391.97;;;-2.44;100.00
13476;BME280;6810;63.824;20.288;2023-02-21T03:44:54;100396.31;;;-2.44;100.00
13476;BME280;6810;63.824;20.288;2023-02-21T03:47:45;100412.88;;;-2.45;100.00
13476;BME280;6810;63.824;20.288;2023-02-21T03:50:34;100417.22;;;-2.46;100.00
13476;BME280;6810;63.824;20.288;2023-02-21T03:53:24;100421.59;;;-2.46;100.00
13476;BME280;6810;63.824;20.288;2023-02-21T03:56:12;100421.59;;;-2.46;100.00
13476;BME280;6810;63.824;20.288;2023-02-21T03:59:37;100434.63;;;-2.46;100.00
13476;BME280;6810;63.824;20.288;2023-02-21T04:02:24;100445.06;;;-2.46;100.00
13476;BME280;6810;63.824;20.288;2023-02-21T04:05:22;100443.31;;;-2.47;100.00
13476;BME280;6810;63.824;20.288;2023-02-21T04:08:09;100403.59;;;-2.75;100.00
13476;BME280;6810;63.824;20.288;2023-02-21T04:10:57;100464.19;;;-2.47;100.00
13476;BME280;6810;63.824;20.288;2023-02-21T04:13:44;100466.78;;;-2.47;100.00
13476;BME280;6810;63.824;20.288;2023-02-21T04:16:31;100462.47;;;-2.48;100.00
13476;BME280;6810;63.824;20.288;2023-02-21T04:19:19;100483.31;;;-2.47;100.00
13476;BME280;6810;63.824;20.288;2023-02-21T04:22:06;100473.78;;;-2.49;100.00
13476;BME280;6810;63.824;20.288;2023-02-21T04:24:53;100490.28;;;-2.47;100.00
13476;BME280;6810;63.824;20.288;2023-02-21T04:27:47;100474.72;;;-2.58;100.00
13476;BME280;6810;63.824;20.288;2023-02-21T04:30:34;100493.78;;;-2.48;100.00
13476;BME280;6810;63.824;20.288;2023-02-21T04:33:21;100504.19;;;-2.48;100.00
13476;BME280;6810;63.824;20.288;2023-02-21T04:36:10;100498.19;;;-2.56;100.00
13476;BME280;6810;63.824;20.288;2023-02-21T04:38:58;100512.03;;;-2.48;100.00
13476;BME280;6810;63.824;20.288;2023-02-21T04:41:46;100525.06;;;-2.48;100.00
13476;BME280;6810;63.824;20.288;2023-02-21T04:44:33;100540.72;;;-2.47;100.00
13476;BME280;6810;63.824;20.288;2023-02-21T04:47:27;100536.38;;;-2.48;100.00
13476;BME280;6810;63.824;20.288;2023-02-21T04:50:14;100506.06;;;-2.64;100.00
13476;BME280;6810;63.824;20.288;2023-02-21T04:53:01;100550.28;;;-2.47;100.00
13476;BME280;6810;63.824;20.288;2023-02-21T04:55:48;100550.28;;;-2.47;100.00
13476;BME280;6810;63.824;20.288;2023-02-21T04:58:35;100558.97;;;-2.47;100.00
13476;BME280;6810;63.824;20.288;2023-02-21T05:01:26;100560.69;;;-2.47;100.00
13476;BME280;6810;63.824;20.288;2023-02-21T05:04:13;100563.31;;;-2.47;100.00
13476;BME280;6810;63.824;20.288;2023-02-21T05:07:01;100575.50;;;-2.48;100.00
13476;BME280;6810;63.824;20.288;2023-02-21T05:09:48;100580.72;;;-2.48;100.00
13476;BME280;6810;63.824;20.288;2023-02-21T05:12:36;100591.16;;;-2.46;100.00
13476;BME280;6810;63.824;20.288;2023-02-21T05:15:23;100598.09;;;-2.47;100.00
13476;BME280;6810;63.824;20.288;2023-02-21T05:18:10;100601.59;;;-2.46;100.00
13476;BME280;6810;63.824;20.288;2023-02-21T05:20:57;100606.81;;;-2.46;100.00
13476;BME280;6810;63.824;20.288;2023-02-21T05:23:45;100613.75;;;-2.45;100.00
13476;BME280;6810;63.824;20.288;2023-02-21T05:26:41;100618.06;;;-2.44;100.00
13476;BME280;6810;63.824;20.288;2023-02-21T05:29:28;100623.28;;;-2.44;100.00
13476;BME280;6810;63.824;20.288;2023-02-21T05:32:16;100632.88;;;-2.43;100.00
13476;BME280;6810;63.824;20.288;2023-02-21T05:35:04;100635.47;;;-2.42;100.00
13476;BME280;6810;63.824;20.288;2023-02-21T05:37:51;100645.03;;;-2.42;100.00
13476;BME280;6810;63.824;20.288;2023-02-21T05:40:38;100650.25;;;-2.42;100.00
13476;BME280;6810;63.824;20.288;2023-02-21T05:43:25;100658.06;;;-2.42;100.00
13476;BME280;6810;63.824;20.288;2023-02-21T05:46:25;100667.63;;;-2.41;100.00
13476;BME280;6810;63.824;20.288;2023-02-21T05:49:12;100609.63;;;-2.79;100.00
13476;BME280;6810;63.824;20.288;2023-02-21T05:51:59;100687.66;;;-2.42;100.00
13476;BME280;6810;63.824;20.288;2023-02-21T05:54:46;100685.03;;;-2.42;100.00
13476;BME280;6810;63.824;20.288;2023-02-21T05:57:37;100696.34;;;-2.44;100.00
13476;BME280;6810;63.824;20.288;2023-02-21T06:00:17;100701.53;;;-2.43;100.00
13476;BME280;6810;63.824;20.288;2023-02-21T06:02:44;100707.63;;;-2.42;100.00
13476;BME280;6810;63.824;20.288;2023-02-21T06:05:11;100705.09;;;-2.50;100.00
13476;BME280;6810;63.824;20.288;2023-02-21T06:07:38;100712.88;;;-2.44;100.00
13476;BME280;6810;63.824;20.288;2023-02-21T06:10:05;100723.31;;;-2.44;100.00
13476;BME280;6810;63.824;20.288;2023-02-21T06:12:32;100731.13;;;-2.44;100.00
13476;BME280;6810;63.824;20.288;2023-02-21T06:15:00;100732.88;;;-2.49;100.00
13476;BME280;6810;63.824;20.288;2023-02-21T06:17:27;100708.63;;;-2.63;100.00
13476;BME280;6810;63.824;20.288;2023-02-21T06:19:57;100742.44;;;-2.45;100.00
13476;BME280;6810;63.824;20.288;2023-02-21T06:22:24;100691.34;;;-2.82;100.00
13476;BME280;6810;63.824;20.288;2023-02-21T06:24:51;100752.03;;;-2.48;100.00
13476;BME280;6810;63.824;20.288;2023-02-21T06:27:18;100761.56;;;-2.47;100.00
13476;BME280;6810;63.824;20.288;2023-02-21T06:29:45;100769.44;;;-2.52;100.00
13476;BME280;6810;63.824;20.288;2023-02-21T06:32:12;100776.38;;;-2.49;100.00
13476;BME280;6810;63.824;20.288;2023-02-21T06:34:39;100780.75;;;-2.51;100.00
13476;BME280;6810;63.824;20.288;2023-02-21T06:37:06;100791.19;;;-2.51;100.00
13476;BME280;6810;63.824;20.288;2023-02-21T06:39:33;100772.97;;;-2.60;100.00
13476;BME280;6810;63.824;20.288;2023-02-21T06:42:20;100799.88;;;-2.52;100.00
13476;BME280;6810;63.824;20.288;2023-02-21T06:45:07;100805.13;;;-2.54;100.00
13476;BME280;6810;63.824;20.288;2023-02-21T06:47:54;100813.78;;;-2.55;100.00
13476;BME280;6810;63.824;20.288;2023-02-21T06:50:41;100829.44;;;-2.56;100.00
13476;BME280;6810;63.824;20.288;2023-02-21T06:53:29;100832.97;;;-2.62;100.00
13476;BME280;6810;63.824;20.288;2023-02-21T06:56:16;100839.03;;;-2.57;100.00
13476;BME280;6810;63.824;20.288;2023-02-21T06:59:03;100852.06;;;-2.58;100.00
13476;BME280;6810;63.824;20.288;2023-02-21T07:01:50;100850.34;;;-2.64;100.00
13476;BME280;6810;63.824;20.288;2023-02-21T07:04:37;100842.50;;;-2.62;100.00
13476;BME280;6810;63.824;20.288;2023-02-21T07:07:24;100852.94;;;-2.64;100.00
13476;BME280;6810;63.824;20.288;2023-02-21T07:10:11;100813.94;;;-2.95;100.00
13476;BME280;6810;63.824;20.288;2023-02-21T07:12:58;100866.88;;;-2.69;100.00
13476;BME280;6810;63.824;20.288;2023-02-21T07:15:48;100878.16;;;-2.67;100.00
13476;BME280;6810;63.824;20.288;2023-02-21T07:18:35;100879.91;;;-2.68;100.00
13476;BME280;6810;63.824;20.288;2023-02-21T07:21:22;100886.00;;;-2.69;100.00
13476;BME280;6810;63.824;20.288;2023-02-21T07:24:09;100886.00;;;-2.75;100.00
13476;BME280;6810;63.824;20.288;2023-02-21T07:26:56;100904.25;;;-2.73;100.00
13476;BME280;6810;63.824;20.288;2023-02-21T07:29:46;100901.66;;;-2.75;100.00
13476;BME280;6810;63.824;20.288;2023-02-21T07:32:33;100906.88;;;-2.78;100.00
13476;BME280;6810;63.824;20.288;2023-02-21T07:35:23;100906.03;;;-2.77;100.00
13476;BME280;6810;63.824;20.288;2023-02-21T07:38:10;100910.34;;;-2.77;100.00
13476;BME280;6810;63.824;20.288;2023-02-21T07:41:04;100929.50;;;-2.78;100.00
13476;BME280;6810;63.824;20.288;2023-02-21T07:43:51;100939.03;;;-2.79;100.00
13476;BME280;6810;63.824;20.288;2023-02-21T07:46:39;100937.31;;;-2.83;100.00
13476;BME280;6810;63.824;20.288;2023-02-21T07:49:25;100946.00;;;-2.81;100.00
13476;BME280;6810;63.824;20.288;2023-02-21T07:52:12;100955.56;;;-2.81;100.00
13476;BME280;6810;63.824;20.288;2023-02-21T07:55:00;100911.25;;;-3.08;100.00
13476;BME280;6810;63.824;20.288;2023-02-21T07:57:47;100969.47;;;-2.85;100.00
13476;BME280;6810;63.824;20.288;2023-02-21T08:00:34;100975.56;;;-2.85;100.00
13476;BME280;6810;63.824;20.288;2023-02-21T08:03:21;100980.78;;;-2.86;100.00
13476;BME280;6810;63.824;20.288;2023-02-21T08:06:08;100981.66;;;-2.87;100.00
13476;BME280;6810;63.824;20.288;2023-02-21T08:08:56;100986.00;;;-2.89;100.00
13476;BME280;6810;63.824;20.288;2023-02-21T08:11:42;100999.03;;;-2.89;100.00
13476;BME280;6810;63.824;20.288;2023-02-21T08:14:29;100998.16;;;-2.91;100.00
13476;BME280;6810;63.824;20.288;2023-02-21T08:16:57;100985.09;;;-3.02;100.00
13476;BME280;6810;63.824;20.288;2023-02-21T08:19:24;101006.84;;;-2.92;100.00
13476;BME280;6810;63.824;20.288;2023-02-21T08:21:50;101008.56;;;-2.93;100.00
13476;BME280;6810;63.824;20.288;2023-02-21T08:24:18;101025.09;;;-2.94;100.00
13476;BME280;6810;63.824;20.288;2023-02-21T08:26:46;101025.94;;;-2.95;100.00
13476;BME280;6810;63.824;20.288;2023-02-21T08:29:13;101023.34;;;-2.95;100.00
13476;BME280;6810;63.824;20.288;2023-02-21T08:31:41;101009.44;;;-3.03;100.00
13476;BME280;6810;63.824;20.288;2023-02-21T08:34:10;101008.56;;;-3.03;100.00
13476;BME280;6810;63.824;20.288;2023-02-21T08:36:40;101023.31;;;-3.04;100.00
13476;BME280;6810;63.824;20.288;2023-02-21T08:39:09;101036.38;;;-2.98;100.00
13476;BME280;6810;63.824;20.288;2023-02-21T08:41:40;101038.97;;;-2.98;100.00
13476;BME280;6810;63.824;20.288;2023-02-21T08:44:09;101042.47;;;-2.99;100.00
13476;BME280;6810;63.824;20.288;2023-02-21T08:46:36;101044.19;;;-2.99;100.00
13476;BME280;6810;63.824;20.288;2023-02-21T08:49:05;101045.94;;;-3.00;100.00
13476;BME280;6810;63.824;20.288;2023-02-21T08:51:32;101032.91;;;-3.09;100.00
13476;BME280;6810;63.824;20.288;2023-02-21T08:54:00;101055.50;;;-3.02;100.00
13476;BME280;6810;63.824;20.288;2023-02-21T08:56:27;101052.88;;;-3.02;100.00
13476;BME280;6810;63.824;20.288;2023-02-21T08:58:56;101058.97;;;-3.01;100.00
13476;BME280;6810;63.824;20.288;2023-02-21T09:01:30;101058.09;;;-3.02;100.00
13476;BME280;6810;63.824;20.288;2023-02-21T09:03:57;101063.31;;;-3.02;100.00
13476;BME280;6810;63.824;20.288;2023-02-21T09:06:24;101073.72;;;-3.03;100.00
13476;BME280;6810;63.824;20.288;2023-02-21T09:08:51;101085.88;;;-3.04;100.00
13476;BME280;6810;63.824;20.288;2023-02-21T09:11:19;101082.44;;;-3.04;100.00
13476;BME280;6810;63.824;20.288;2023-02-21T09:13:46;101072.00;;;-3.13;100.00
13476;BME280;6810;63.824;20.288;2023-02-21T09:16:12;101045.88;;;-3.28;100.00
13476;BME280;6810;63.824;20.288;2023-02-21T09:18:40;101091.97;;;-3.06;100.00
13476;BME280;6810;63.824;20.288;2023-02-21T09:21:07;101094.59;;;-3.06;100.00
13476;BME280;6810;63.824;20.288;2023-02-21T09:23:34;101098.91;;;-3.08;100.00
13476;BME280;6810;63.824;20.288;2023-02-21T09:26:01;101105.00;;;-3.11;100.00
13476;BME280;6810;63.824;20.288;2023-02-21T09:28:28;101111.94;;;-3.10;100.00
13476;BME280;6810;63.824;20.288;2023-02-21T09:30:57;101117.16;;;-3.11;100.00
13476;BME280;6810;63.824;20.288;2023-02-21T09:33:24;101123.25;;;-3.11;100.00
13476;BME280;6810;63.824;20.288;2023-02-21T09:35:51;101123.22;;;-3.14;100.00
13476;BME280;6810;63.824;20.288;2023-02-21T09:38:19;101124.94;;;-3.16;100.00
13476;BME280;6810;63.824;20.288;2023-02-21T09:40:55;101134.53;;;-3.16;100.00
13476;BME280;6810;63.824;20.288;2023-02-21T09:43:33;101131.03;;;-3.17;100.00
13476;BME280;6810;63.824;20.288;2023-02-21T09:46:06;101115.38;;;-3.30;100.00
13476;BME280;6810;63.824;20.288;2023-02-21T09:48:35;101134.53;;;-3.19;100.00
13476;BME280;6810;63.824;20.288;2023-02-21T09:51:04;101138.84;;;-3.21;100.00
13476;BME280;6810;63.824;20.288;2023-02-21T09:53:45;101146.66;;;-3.21;100.00
13476;BME280;6810;63.824;20.288;2023-02-21T09:56:20;101141.44;;;-3.24;100.00
13476;BME280;6810;63.824;20.288;2023-02-21T09:58:51;101150.09;;;-3.22;100.00
13476;BME280;6810;63.824;20.288;2023-02-21T10:01:24;101151.88;;;-3.23;100.00
13476;BME280;6810;63.824;20.288;2023-02-21T10:06:45;101150.97;;;-3.28;100.00
13476;BME280;6810;63.824;20.288;2023-02-21T10:09:22;101102.16;;;-3.67;100.00
13476;BME280;6810;63.824;20.288;2023-02-21T10:11:59;101171.81;;;-3.29;100.00
13476;BME280;6810;63.824;20.288;2023-02-21T10:17:53;101189.16;;;-3.33;100.00
13476;BME280;6810;63.824;20.288;2023-02-21T10:20:50;101195.25;;;-3.32;100.00
13476;BME280;6810;63.824;20.288;2023-02-21T10:23:22;101204.78;;;-3.33;100.00
13476;BME280;6810;63.824;20.288;2023-02-21T10:25:53;101196.09;;;-3.36;100.00
13476;BME280;6810;63.824;20.288;2023-02-21T10:28:24;101158.63;;;-3.61;100.00
13476;BME280;6810;63.824;20.288;2023-02-21T10:30:56;101210.00;;;-3.34;100.00
13476;BME280;6810;63.824;20.288;2023-02-21T10:33:24;101207.38;;;-3.37;100.00
13476;BME280;6810;63.824;20.288;2023-02-21T10:35:52;101222.19;;;-3.33;100.00
13476;BME280;6810;63.824;20.288;2023-02-21T10:38:24;101224.78;;;-3.33;100.00
13476;BME280;6810;63.824;20.288;2023-02-21T10:41:01;101223.88;;;-3.35;100.00
13476;BME280;6810;63.824;20.288;2023-02-21T10:43:47;101223.91;;;-3.34;100.00
13476;BME280;6810;63.824;20.288;2023-02-21T10:46:27;101231.69;;;-3.35;100.00
13476;BME280;6810;63.824;20.288;2023-02-21T10:51:44;101249.94;;;-3.35;100.00
13476;BME280;6810;63.824;20.288;2023-02-21T10:54:23;101250.81;;;-3.38;100.00
13476;BME280;6810;63.824;20.288;2023-02-21T10:56:52;101256.88;;;-3.37;100.00
13476;BME280;6810;63.824;20.288;2023-02-21T10:59:28;101259.47;;;-3.37;100.00
13476;BME280;6810;63.824;20.288;2023-02-21T11:01:56;101257.75;;;-3.38;100.00
13476;BME280;6810;63.824;20.288;2023-02-21T11:04:32;101263.84;;;-3.38;100.00
13476;BME280;6810;63.824;20.288;2023-02-21T11:07:08;101260.34;;;-3.37;100.00
13476;BME280;6810;63.824;20.288;2023-02-21T11:09:48;101260.34;;;-3.37;100.00
13476;BME280;6810;63.824;20.288;2023-02-21T11:12:34;101263.81;;;-3.39;100.00
13476;BME280;6810;63.824;20.288;2023-02-21T11:17:30;101275.13;;;-3.36;100.00
13476;BME280;6810;63.824;20.288;2023-02-21T11:20:18;101269.06;;;-3.36;100.00
13476;BME280;6810;63.824;20.288;2023-02-21T11:22:48;101277.72;;;-3.34;100.00
13476;BME280;6810;63.824;20.288;2023-02-21T11:25:28;101289.91;;;-3.33;100.00
13476;BME280;6810;63.824;20.288;2023-02-21T11:31:02;101291.66;;;-3.29;100.00
13476;BME280;6810;63.824;20.288;2023-02-21T11:33:30;101297.75;;;-3.29;100.00
13476;BME280;6810;63.824;20.288;2023-02-21T11:36:12;101304.72;;;-3.26;100.00
13476;BME280;6810;63.824;20.288;2023-02-21T11:41:26;101310.81;;;-3.24;100.00
13476;BME280;6810;63.824;20.288;2023-02-21T11:43:54;101310.81;;;-3.23;100.00
13476;BME280;6810;63.824;20.288;2023-02-21T11:51:52;101336.91;;;-3.20;100.00
13476;BME280;6810;63.824;20.288;2023-02-21T11:54:25;101274.09;;;-3.55;100.00
13476;BME280;6810;63.824;20.288;2023-02-21T11:57:19;101332.59;;;-3.18;100.00
13476;BME280;6810;63.824;20.288;2023-02-21T12:19:11;101365.66;;;-3.08;100.00
13476;BME280;6810;63.824;20.288;2023-02-21T12:27:26;101375.22;;;-3.07;100.00
13476;BME280;6810;63.824;20.288;2023-02-21T12:32:48;101390.03;;;-3.04;100.00
13476;BME280;6810;63.824;20.288;2023-02-21T12:38:24;101402.19;;;-3.02;100.00
13476;BME280;6810;63.824;20.288;2023-02-21T12:41:03;101404.81;;;-3.00;100.00
13476;BME280;6810;63.824;20.288;2023-02-21T12:46:38;101414.41;;;-2.95;100.00
13476;BME280;6810;63.824;20.288;2023-02-21T12:52:17;101422.25;;;-2.92;100.00
13476;BME280;6810;63.824;20.288;2023-02-21T12:55:00;101423.16;;;-2.90;100.00
13476;BME280;6810;63.824;20.288;2023-02-21T12:57:51;101433.59;;;-2.88;100.00
13476;BME280;6810;63.824;20.288;2023-02-21T13:00:24;101419.69;;;-2.87;100.00
13476;BME280;6810;63.824;20.288;2023-02-21T13:05:39;101434.50;;;-2.83;100.00
13476;BME280;6810;63.824;20.288;2023-02-21T13:08:16;101425.81;;;-2.82;100.00
13476;BME280;6810;63.824;20.288;2023-02-21T13:11:13;101437.13;;;-2.80;100.00
13476;BME280;6810;63.824;20.288;2023-02-21T13:13:41;101425.78;;;-2.87;100.00
13476;BME280;6810;63.824;20.288;2023-02-21T13:16:10;101448.44;;;-2.80;100.00
13476;BME280;6810;63.824;20.288;2023-02-21T13:18:49;101444.06;;;-2.79;100.00
13476;BME280;6810;63.824;20.288;2023-02-21T13:21:29;101445.84;;;-2.78;100.00
13476;BME280;6810;63.824;20.288;2023-02-21T13:24:02;101452.78;;;-2.77;100.00
13476;BME280;6810;63.824;20.288;2023-02-21T13:29:41;101453.66;;;-2.78;100.00
13476;BME280;6810;63.824;20.288;2023-02-21T13:32:14;101462.31;;;-2.84;100.00
13476;BME280;6810;63.824;20.288;2023-02-21T13:34:53;101475.38;;;-2.79;100.00
13476;BME280;6810;63.824;20.288;2023-02-21T13:37:24;101480.59;;;-2.79;100.00
13476;BME280;6810;63.824;20.288;2023-02-21T13:39:56;101469.25;;;-2.86;100.00
13476;BME280;6810;63.824;20.288;2023-02-21T13:42:28;101491.00;;;-2.81;100.00
13476;BME280;6810;63.824;20.288;2023-02-21T13:45:18;101497.09;;;-2.82;100.00
13476;BME280;6810;63.824;20.288;2023-02-21T13:53:21;101490.94;;;-2.88;100.00
13476;BME280;6810;63.824;20.288;2023-02-21T13:58:44;101503.19;;;-2.84;100.00
13476;BME280;6810;63.824;20.288;2023-02-21T14:01:19;101509.25;;;-2.84;100.00
13476;BME280;6810;63.824;20.288;2023-02-21T14:03:50;101514.44;;;-2.84;100.00
13476;BME280;6810;63.824;20.288;2023-02-21T14:06:32;101517.91;;;-2.86;100.00
13476;BME280;6810;63.824;20.288;2023-02-21T14:09:12;101524.88;;;-2.85;100.00
13476;BME280;6810;63.824;20.288;2023-02-21T14:11:47;101520.53;;;-2.86;100.00
13476;BME280;6810;63.824;20.288;2023-02-21T14:14:27;101511.75;;;-2.96;100.00
13476;BME280;6810;63.824;20.288;2023-02-21T14:17:09;101529.22;;;-2.87;100.00
13476;BME280;6810;63.824;20.288;2023-02-21T14:19:41;101527.47;;;-2.88;100.00
13476;BME280;6810;63.824;20.288;2023-02-21T14:24:44;101526.56;;;-2.90;100.00
13476;BME280;6810;63.824;20.288;2023-02-21T14:32:47;101541.34;;;-2.92;100.00
13476;BME280;6810;63.824;20.288;2023-02-21T14:38:15;101552.56;;;-2.96;100.00
13476;BME280;6810;63.824;20.288;2023-02-21T14:43:31;101556.91;;;-3.01;100.00
13476;BME280;6810;63.824;20.288;2023-02-21T14:49:08;101568.16;;;-3.02;100.00
13476;BME280;6810;63.824;20.288;2023-02-21T14:52:02;101570.75;;;-3.04;100.00
13476;BME280;6810;63.824;20.288;2023-02-21T14:54:57;101568.06;;;-3.11;100.00
13476;BME280;6810;63.824;20.288;2023-02-21T15:03:40;101595.03;;;-3.11;100.00
13476;BME280;6810;63.824;20.288;2023-02-21T15:06:13;101595.00;;;-3.14;100.00
13476;BME280;6810;63.824;20.288;2023-02-21T15:08:47;101597.56;;;-3.17;100.00
13476;BME280;6810;63.824;20.288;2023-02-21T15:14:25;101618.34;;;-3.23;100.00
13476;BME280;6810;63.824;20.288;2023-02-21T15:16:59;101598.16;;;-3.39;100.00
13476;BME280;6810;63.824;20.288;2023-02-21T15:19:30;101619.09;;;-3.31;100.00
13476;BME280;6810;63.824;20.288;2023-02-21T15:25:16;101635.53;;;-3.38;100.00
13476;BME280;6810;63.824;20.288;2023-02-21T15:33:20;101647.59;;;-3.43;100.00
13476;BME280;6810;63.824;20.288;2023-02-21T15:36:20;101647.56;;;-3.46;100.00
13476;BME280;6810;63.824;20.288;2023-02-21T15:42:11;101643.16;;;-3.53;100.00
13476;BME280;6810;63.824;20.288;2023-02-21T15:45:03;101643.97;;;-3.56;100.00
13476;BME280;6810;63.824;20.288;2023-02-21T15:47:51;101658.69;;;-3.60;100.00
13476;BME280;6810;63.824;20.288;2023-02-21T15:50:44;101657.78;;;-3.62;100.00
13476;BME280;6810;63.824;20.288;2023-02-21T15:53:32;101670.78;;;-3.65;100.00
13476;BME280;6810;63.824;20.288;2023-02-21T15:56:23;101675.94;;;-3.68;100.00
13476;BME280;6810;63.824;20.288;2023-02-21T16:02:16;101679.34;;;-3.73;100.00
13476;BME280;6810;63.824;20.288;2023-02-21T16:05:25;101682.72;;;-3.79;100.00
13476;BME280;6810;63.824;20.288;2023-02-21T16:08:14;101694.00;;;-3.80;100.00
13476;BME280;6810;63.824;20.288;2023-02-21T16:10:43;101692.22;;;-3.82;100.00